sensor_id;sensor_type;location;lat;lon;timestamp;P1;durP1;ratioP1;P2;durP2;ratioP2
52974;SDS011;38839;45.186;5.720;2023-11-21T00:01:37;13.35;;;8.32;;
52974;SDS011;38839;45.186;5.720;2023-11-21T00:04:03;11.65;;;8.57;;
52974;SDS011;38839;45.186;5.720;2023-11-21T00:06:28;13.27;;;8.07;;
52974;SDS011;38839;45.186;5.720;2023-11-21T00:08:55;11.27;;;8.27;;
52974;SDS011;38839;45.186;5.720;2023-11-21T00:11:21;16.95;;;8.88;;
52974;SDS011;38839;45.186;5.720;2023-11-21T00:13:46;13.27;;;8.52;;
52974;SDS011;38839;45.186;5.720;2023-11-21T00:16:12;15.40;;;8.70;;
52974;SDS011;38839;45.186;5.720;2023-11-21T00:18:38;12.23;;;7.90;;
52974;SDS011;38839;45.186;5.720;2023-11-21T00:21:03;11.95;;;8.57;;
52974;SDS011;38839;45.186;5.720;2023-11-21T00:23:29;11.27;;;7.97;;
52974;SDS011;38839;45.186;5.720;2023-11-21T00:25:54;10.55;;;7.90;;
52974;SDS011;38839;45.186;5.720;2023-11-21T00:28:20;12.80;;;8.48;;
52974;SDS011;38839;45.186;5.720;2023-11-21T00:30:45;11.75;;;7.63;;
52974;SDS011;38839;45.186;5.720;2023-11-21T00:33:11;10.57;;;7.75;;
52974;SDS011;38839;45.186;5.720;2023-11-21T00:35:37;16.42;;;8.65;;
52974;SDS011;38839;45.186;5.720;2023-11-21T00:38:03;10.95;;;8.18;;
52974;SDS011;38839;45.186;5.720;2023-11-21T00:40:28;12.35;;;7.75;;
52974;SDS011;38839;45.186;5.720;2023-11-21T00:42:54;13.63;;;8.13;;
52974;SDS011;38839;45.186;5.720;2023-11-21T00:45:21;12.52;;;8.27;;
52974;SDS011;38839;45.186;5.720;2023-11-21T00:47:46;13.00;;;8.43;;
52974;SDS011;38839;45.186;5.720;2023-11-21T00:50:11;11.55;;;8.30;;
52974;SDS011;38839;45.186;5.720;2023-11-21T00:52:37;12.85;;;8.45;;
52974;SDS011;38839;45.186;5.720;2023-11-21T00:55:03;13.27;;;8.40;;
52974;SDS011;38839;45.186;5.720;2023-11-21T00:57:29;13.52;;;8.27;;
52974;SDS011;38839;45.186;5.720;2023-11-21T00:59:55;14.45;;;8.25;;
52974;SDS011;38839;45.186;5.720;2023-11-21T01:02:20;12.13;;;7.57;;
52974;SDS011;38839;45.186;5.720;2023-11-21T01:04:46;9.25;;;6.90;;
52974;SDS011;38839;45.186;5.720;2023-11-21T01:07:12;9.40;;;6.88;;
52974;SDS011;38839;45.186;5.720;2023-11-21T01:09:38;11.85;;;6.72;;
52974;SDS011;38839;45.186;5.720;2023-11-21T01:12:04;8.95;;;6.20;;
52974;SDS011;38839;45.186;5.720;2023-11-21T01:14:29;9.10;;;6.43;;
52974;SDS011;38839;45.186;5.720;2023-11-21T01:16:55;8.23;;;5.93;;
52974;SDS011;38839;45.186;5.720;2023-11-21T01:19:21;10.90;;;5.88;;
52974;SDS011;38839;45.186;5.720;2023-11-21T01:21:46;9.77;;;6.35;;
52974;SDS011;38839;45.186;5.720;2023-11-21T01:24:12;8.60;;;6.15;;
52974;SDS011;38839;45.186;5.720;2023-11-21T01:26:37;9.90;;;6.55;;
52974;SDS011;38839;45.186;5.720;2023-11-21T01:29:03;12.30;;;6.78;;
52974;SDS011;38839;45.186;5.720;2023-11-21T01:31:28;11.23;;;7.10;;
52974;SDS011;38839;45.186;5.720;2023-11-21T01:33:55;10.52;;;6.95;;
52974;SDS011;38839;45.186;5.720;2023-11-21T01:36:21;13.10;;;7.50;;
52974;SDS011;38839;45.186;5.720;2023-11-21T01:38:46;11.77;;;7.45;;
52974;SDS011;38839;45.186;5.720;2023-11-21T01:41:13;10.02;;;7.55;;
52974;SDS011;38839;45.186;5.720;2023-11-21T01:43:39;11.25;;;7.40;;
52974;SDS011;38839;45.186;5.720;2023-11-21T01:46:05;10.23;;;6.70;;
52974;SDS011;38839;45.186;5.720;2023-11-21T01:48:31;10.88;;;7.10;;
52974;SDS011;38839;45.186;5.720;2023-11-21T01:50:57;11.00;;;7.75;;
52974;SDS011;38839;45.186;5.720;2023-11-21T01:53:24;12.43;;;7.28;;
52974;SDS011;38839;45.186;5.720;2023-11-21T01:55:54;10.25;;;7.05;;
52974;SDS011;38839;45.186;5.720;2023-11-21T01:58:20;11.57;;;6.57;;
52974;SDS011;38839;45.186;5.720;2023-11-21T02:00:46;11.93;;;7.05;;
52974;SDS011;38839;45.186;5.720;2023-11-21T02:03:15;9.88;;;6.82;;
52974;SDS011;38839;45.186;5.720;2023-11-21T02:05:41;12.27;;;7.00;;
52974;SDS011;38839;45.186;5.720;2023-11-21T02:08:07;10.65;;;7.18;;
52974;SDS011;38839;45.186;5.720;2023-11-21T02:10:34;10.40;;;6.45;;
52974;SDS011;38839;45.186;5.720;2023-11-21T02:13:02;9.98;;;7.07;;
52974;SDS011;38839;45.186;5.720;2023-11-21T02:15:27;11.55;;;8.35;;
52974;SDS011;38839;45.186;5.720;2023-11-21T02:17:53;10.90;;;8.05;;
52974;SDS011;38839;45.186;5.720;2023-11-21T02:20:20;10.50;;;7.72;;
52974;SDS011;38839;45.186;5.720;2023-11-21T02:22:51;12.07;;;8.10;;
52974;SDS011;38839;45.186;5.720;2023-11-21T02:25:26;12.32;;;8.13;;
52974;SDS011;38839;45.186;5.720;2023-11-21T02:27:53;16.80;;;7.97;;
52974;SDS011;38839;45.186;5.720;2023-11-21T02:30:20;13.75;;;7.85;;
52974;SDS011;38839;45.186;5.720;2023-11-21T02:32:50;11.05;;;7.35;;
52974;SDS011;38839;45.186;5.720;2023-11-21T02:35:19;10.63;;;7.10;;
52974;SDS011;38839;45.186;5.720;2023-11-21T02:37:47;12.25;;;7.88;;
52974;SDS011;38839;45.186;5.720;2023-11-21T02:40:13;13.00;;;8.07;;
52974;SDS011;38839;45.186;5.720;2023-11-21T02:42:42;12.82;;;6.32;;
52974;SDS011;38839;45.186;5.720;2023-11-21T02:45:12;12.73;;;7.68;;
52974;SDS011;38839;45.186;5.720;2023-11-21T02:47:39;12.63;;;7.28;;
52974;SDS011;38839;45.186;5.720;2023-11-21T02:50:05;10.45;;;6.88;;
52974;SDS011;38839;45.186;5.720;2023-11-21T02:52:33;9.98;;;6.50;;
52974;SDS011;38839;45.186;5.720;2023-11-21T02:55:00;10.77;;;7.00;;
52974;SDS011;38839;45.186;5.720;2023-11-21T02:57:26;10.20;;;5.57;;
52974;SDS011;38839;45.186;5.720;2023-11-21T02:59:53;9.57;;;5.65;;
52974;SDS011;38839;45.186;5.720;2023-11-21T03:02:19;8.07;;;5.70;;
52974;SDS011;38839;45.186;5.720;2023-11-21T03:04:45;8.90;;;5.43;;
52974;SDS011;38839;45.186;5.720;2023-11-21T03:07:10;10.38;;;5.05;;
52974;SDS011;38839;45.186;5.720;2023-11-21T03:09:36;5.78;;;3.97;;
52974;SDS011;38839;45.186;5.720;2023-11-21T03:12:01;7.10;;;4.45;;
52974;SDS011;38839;45.186;5.720;2023-11-21T03:14:27;7.00;;;4.90;;
52974;SDS011;38839;45.186;5.720;2023-11-21T03:16:52;6.38;;;4.40;;
52974;SDS011;38839;45.186;5.720;2023-11-21T03:19:18;8.52;;;4.63;;
52974;SDS011;38839;45.186;5.720;2023-11-21T03:21:43;8.02;;;4.00;;
52974;SDS011;38839;45.186;5.720;2023-11-21T03:24:08;7.30;;;4.13;;
52974;SDS011;38839;45.186;5.720;2023-11-21T03:26:34;6.78;;;4.38;;
52974;SDS011;38839;45.186;5.720;2023-11-21T03:29:00;6.15;;;4.00;;
52974;SDS011;38839;45.186;5.720;2023-11-21T03:31:25;6.65;;;4.18;;
52974;SDS011;38839;45.186;5.720;2023-11-21T03:33:51;6.05;;;3.80;;
52974;SDS011;38839;45.186;5.720;2023-11-21T03:36:18;6.70;;;3.30;;
52974;SDS011;38839;45.186;5.720;2023-11-21T03:38:44;4.65;;;3.65;;
52974;SDS011;38839;45.186;5.720;2023-11-21T03:41:10;6.13;;;3.38;;
52974;SDS011;38839;45.186;5.720;2023-11-21T03:43:37;5.57;;;3.17;;
52974;SDS011;38839;45.186;5.720;2023-11-21T03:46:03;8.32;;;4.28;;
52974;SDS011;38839;45.186;5.720;2023-11-21T03:48:28;10.65;;;3.50;;
52974;SDS011;38839;45.186;5.720;2023-11-21T03:50:54;7.47;;;3.85;;
52974;SDS011;38839;45.186;5.720;2023-11-21T03:53:19;5.13;;;3.40;;
52974;SDS011;38839;45.186;5.720;2023-11-21T03:55:45;4.93;;;3.10;;
52974;SDS011;38839;45.186;5.720;2023-11-21T03:58:10;5.57;;;3.08;;
52974;SDS011;38839;45.186;5.720;2023-11-21T04:00:36;7.15;;;2.92;;
52974;SDS011;38839;45.186;5.720;2023-11-21T04:03:01;4.55;;;3.08;;
52974;SDS011;38839;45.186;5.720;2023-11-21T04:05:27;6.15;;;2.80;;
52974;SDS011;38839;45.186;5.720;2023-11-21T04:07:52;4.90;;;2.92;;
52974;SDS011;38839;45.186;5.720;2023-11-21T04:10:18;4.85;;;2.88;;
52974;SDS011;38839;45.186;5.720;2023-11-21T04:12:43;4.82;;;2.63;;
52974;SDS011;38839;45.186;5.720;2023-11-21T04:15:10;6.35;;;3.30;;
52974;SDS011;38839;45.186;5.720;2023-11-21T04:17:38;4.70;;;3.45;;
52974;SDS011;38839;45.186;5.720;2023-11-21T04:20:06;6.22;;;3.30;;
52974;SDS011;38839;45.186;5.720;2023-11-21T04:25:09;5.78;;;2.97;;
52974;SDS011;38839;45.186;5.720;2023-11-21T04:27:42;5.88;;;3.67;;
52974;SDS011;38839;45.186;5.720;2023-11-21T04:30:10;5.53;;;2.80;;
52974;SDS011;38839;45.186;5.720;2023-11-21T04:32:36;9.93;;;3.53;;
52974;SDS011;38839;45.186;5.720;2023-11-21T04:35:02;5.15;;;2.72;;
52974;SDS011;38839;45.186;5.720;2023-11-21T04:37:29;4.85;;;2.72;;
52974;SDS011;38839;45.186;5.720;2023-11-21T04:39:54;4.60;;;2.75;;
52974;SDS011;38839;45.186;5.720;2023-11-21T04:42:20;6.85;;;3.55;;
52974;SDS011;38839;45.186;5.720;2023-11-21T04:44:45;6.40;;;3.30;;
52974;SDS011;38839;45.186;5.720;2023-11-21T04:47:11;4.30;;;2.63;;
52974;SDS011;38839;45.186;5.720;2023-11-21T04:49:36;5.57;;;2.95;;
52974;SDS011;38839;45.186;5.720;2023-11-21T04:52:01;6.18;;;3.20;;
52974;SDS011;38839;45.186;5.720;2023-11-21T04:54:28;3.65;;;2.83;;
52974;SDS011;38839;45.186;5.720;2023-11-21T04:56:55;3.92;;;2.70;;
52974;SDS011;38839;45.186;5.720;2023-11-21T04:59:21;3.00;;;2.03;;
52974;SDS011;38839;45.186;5.720;2023-11-21T05:01:49;4.38;;;2.88;;
52974;SDS011;38839;45.186;5.720;2023-11-21T05:04:15;6.72;;;3.15;;
52974;SDS011;38839;45.186;5.720;2023-11-21T05:06:40;7.10;;;3.67;;
52974;SDS011;38839;45.186;5.720;2023-11-21T05:09:06;5.43;;;3.50;;
52974;SDS011;38839;45.186;5.720;2023-11-21T05:11:36;6.68;;;3.95;;
52974;SDS011;38839;45.186;5.720;2023-11-21T05:14:02;5.38;;;3.25;;
52974;SDS011;38839;45.186;5.720;2023-11-21T05:16:29;5.80;;;2.50;;
52974;SDS011;38839;45.186;5.720;2023-11-21T05:18:54;6.75;;;2.95;;
52974;SDS011;38839;45.186;5.720;2023-11-21T05:21:25;5.03;;;2.80;;
52974;SDS011;38839;45.186;5.720;2023-11-21T05:23:51;4.85;;;3.00;;
52974;SDS011;38839;45.186;5.720;2023-11-21T05:26:17;5.50;;;2.72;;
52974;SDS011;38839;45.186;5.720;2023-11-21T05:28:43;6.55;;;2.60;;
52974;SDS011;38839;45.186;5.720;2023-11-21T05:31:08;3.75;;;2.33;;
52974;SDS011;38839;45.186;5.720;2023-11-21T05:33:34;4.13;;;2.40;;
52974;SDS011;38839;45.186;5.720;2023-11-21T05:35:59;4.05;;;1.60;;
52974;SDS011;38839;45.186;5.720;2023-11-21T05:38:25;3.33;;;1.40;;
52974;SDS011;38839;45.186;5.720;2023-11-21T05:40:50;2.40;;;1.23;;
52974;SDS011;38839;45.186;5.720;2023-11-21T05:43:19;5.50;;;1.52;;
52974;SDS011;38839;45.186;5.720;2023-11-21T05:45:45;3.72;;;1.60;;
52974;SDS011;38839;45.186;5.720;2023-11-21T05:48:10;3.08;;;1.30;;
52974;SDS011;38839;45.186;5.720;2023-11-21T05:50:35;3.97;;;1.00;;
52974;SDS011;38839;45.186;5.720;2023-11-21T05:53:03;3.35;;;1.33;;
52974;SDS011;38839;45.186;5.720;2023-11-21T05:55:28;4.80;;;1.75;;
52974;SDS011;38839;45.186;5.720;2023-11-21T05:57:54;3.00;;;1.20;;
52974;SDS011;38839;45.186;5.720;2023-11-21T06:00:19;2.45;;;1.55;;
52974;SDS011;38839;45.186;5.720;2023-11-21T06:02:45;6.82;;;2.28;;
52974;SDS011;38839;45.186;5.720;2023-11-21T06:05:12;3.58;;;2.42;;
52974;SDS011;38839;45.186;5.720;2023-11-21T06:07:37;3.13;;;2.05;;
52974;SDS011;38839;45.186;5.720;2023-11-21T06:10:04;4.22;;;3.00;;
52974;SDS011;38839;45.186;5.720;2023-11-21T06:12:36;5.03;;;2.30;;
52974;SDS011;38839;45.186;5.720;2023-11-21T06:15:03;3.25;;;1.80;;
52974;SDS011;38839;45.186;5.720;2023-11-21T06:17:36;5.70;;;2.40;;
52974;SDS011;38839;45.186;5.720;2023-11-21T06:20:05;3.22;;;2.20;;
52974;SDS011;38839;45.186;5.720;2023-11-21T06:22:37;4.90;;;2.60;;
52974;SDS011;38839;45.186;5.720;2023-11-21T06:25:03;2.30;;;1.73;;
52974;SDS011;38839;45.186;5.720;2023-11-21T06:27:33;4.03;;;1.95;;
52974;SDS011;38839;45.186;5.720;2023-11-21T06:30:01;2.95;;;1.40;;
52974;SDS011;38839;45.186;5.720;2023-11-21T06:32:26;2.88;;;1.67;;
52974;SDS011;38839;45.186;5.720;2023-11-21T06:34:53;2.47;;;1.60;;
52974;SDS011;38839;45.186;5.720;2023-11-21T06:37:19;2.72;;;1.80;;
52974;SDS011;38839;45.186;5.720;2023-11-21T06:42:17;4.20;;;1.23;;
52974;SDS011;38839;45.186;5.720;2023-11-21T06:44:42;4.38;;;1.52;;
52974;SDS011;38839;45.186;5.720;2023-11-21T06:47:09;2.58;;;1.48;;
52974;SDS011;38839;45.186;5.720;2023-11-21T06:49:34;4.55;;;1.50;;
52974;SDS011;38839;45.186;5.720;2023-11-21T06:51:59;2.25;;;1.23;;
52974;SDS011;38839;45.186;5.720;2023-11-21T06:54:27;1.90;;;1.30;;
52974;SDS011;38839;45.186;5.720;2023-11-21T06:56:53;2.13;;;1.10;;
52974;SDS011;38839;45.186;5.720;2023-11-21T06:59:18;2.67;;;1.10;;
52974;SDS011;38839;45.186;5.720;2023-11-21T07:01:44;2.97;;;1.50;;
52974;SDS011;38839;45.186;5.720;2023-11-21T07:04:09;3.10;;;1.10;;
52974;SDS011;38839;45.186;5.720;2023-11-21T07:06:35;1.52;;;1.00;;
52974;SDS011;38839;45.186;5.720;2023-11-21T07:09:00;3.03;;;1.23;;
52974;SDS011;38839;45.186;5.720;2023-11-21T07:11:26;1.80;;;1.08;;
52974;SDS011;38839;45.186;5.720;2023-11-21T07:13:52;4.72;;;1.30;;
52974;SDS011;38839;45.186;5.720;2023-11-21T07:16:18;3.53;;;1.40;;
52974;SDS011;38839;45.186;5.720;2023-11-21T07:18:43;2.95;;;1.58;;
52974;SDS011;38839;45.186;5.720;2023-11-21T07:21:10;3.60;;;1.50;;
52974;SDS011;38839;45.186;5.720;2023-11-21T07:23:37;8.15;;;1.60;;
52974;SDS011;38839;45.186;5.720;2023-11-21T07:26:02;7.22;;;1.60;;
52974;SDS011;38839;45.186;5.720;2023-11-21T07:28:28;3.55;;;1.73;;
52974;SDS011;38839;45.186;5.720;2023-11-21T07:30:54;2.78;;;1.65;;
52974;SDS011;38839;45.186;5.720;2023-11-21T07:33:20;2.80;;;1.50;;
52974;SDS011;38839;45.186;5.720;2023-11-21T07:35:46;2.30;;;1.73;;
52974;SDS011;38839;45.186;5.720;2023-11-21T07:38:12;3.70;;;1.83;;
52974;SDS011;38839;45.186;5.720;2023-11-21T07:40:39;4.95;;;1.73;;
52974;SDS011;38839;45.186;5.720;2023-11-21T07:43:05;5.80;;;2.10;;
52974;SDS011;38839;45.186;5.720;2023-11-21T07:45:30;4.82;;;2.22;;
52974;SDS011;38839;45.186;5.720;2023-11-21T07:47:56;5.32;;;2.30;;
52974;SDS011;38839;45.186;5.720;2023-11-21T07:50:21;4.38;;;2.00;;
52974;SDS011;38839;45.186;5.720;2023-11-21T07:52:48;4.53;;;2.13;;
52974;SDS011;38839;45.186;5.720;2023-11-21T07:55:14;4.93;;;2.00;;
52974;SDS011;38839;45.186;5.720;2023-11-21T07:57:40;2.53;;;1.80;;
52974;SDS011;38839;45.186;5.720;2023-11-21T08:00:06;8.18;;;2.35;;
52974;SDS011;38839;45.186;5.720;2023-11-21T08:02:34;2.78;;;1.63;;
52974;SDS011;38839;45.186;5.720;2023-11-21T08:04:59;4.15;;;1.80;;
52974;SDS011;38839;45.186;5.720;2023-11-21T08:07:25;5.13;;;2.40;;
52974;SDS011;38839;45.186;5.720;2023-11-21T08:09:51;7.57;;;2.20;;
52974;SDS011;38839;45.186;5.720;2023-11-21T08:12:17;4.97;;;2.10;;
52974;SDS011;38839;45.186;5.720;2023-11-21T08:14:43;4.70;;;2.20;;
52974;SDS011;38839;45.186;5.720;2023-11-21T08:17:09;4.78;;;2.05;;
52974;SDS011;38839;45.186;5.720;2023-11-21T08:19:35;3.25;;;1.63;;
52974;SDS011;38839;45.186;5.720;2023-11-21T08:22:01;3.95;;;2.15;;
52974;SDS011;38839;45.186;5.720;2023-11-21T08:24:28;3.08;;;1.83;;
52974;SDS011;38839;45.186;5.720;2023-11-21T08:26:53;4.72;;;1.80;;
52974;SDS011;38839;45.186;5.720;2023-11-21T08:29:19;6.45;;;1.67;;
52974;SDS011;38839;45.186;5.720;2023-11-21T08:31:44;3.78;;;2.00;;
52974;SDS011;38839;45.186;5.720;2023-11-21T08:34:11;4.97;;;1.75;;
52974;SDS011;38839;45.186;5.720;2023-11-21T08:36:41;5.38;;;2.13;;
52974;SDS011;38839;45.186;5.720;2023-11-21T08:39:07;6.20;;;2.95;;
52974;SDS011;38839;45.186;5.720;2023-11-21T08:41:33;5.40;;;1.88;;
52974;SDS011;38839;45.186;5.720;2023-11-21T08:43:58;6.20;;;1.67;;
52974;SDS011;38839;45.186;5.720;2023-11-21T08:46:24;6.47;;;1.77;;
52974;SDS011;38839;45.186;5.720;2023-11-21T08:48:50;3.45;;;1.65;;
52974;SDS011;38839;45.186;5.720;2023-11-21T08:51:19;4.43;;;1.83;;
52974;SDS011;38839;45.186;5.720;2023-11-21T08:53:44;6.60;;;1.98;;
52974;SDS011;38839;45.186;5.720;2023-11-21T08:56:13;4.72;;;1.60;;
52974;SDS011;38839;45.186;5.720;2023-11-21T08:58:41;5.68;;;1.88;;
52974;SDS011;38839;45.186;5.720;2023-11-21T09:01:06;8.88;;;1.92;;
52974;SDS011;38839;45.186;5.720;2023-11-21T09:03:32;5.32;;;1.73;;
52974;SDS011;38839;45.186;5.720;2023-11-21T09:05:59;3.53;;;1.60;;
52974;SDS011;38839;45.186;5.720;2023-11-21T09:08:25;5.35;;;1.80;;
52974;SDS011;38839;45.186;5.720;2023-11-21T09:10:50;5.38;;;2.45;;
52974;SDS011;38839;45.186;5.720;2023-11-21T09:13:17;9.20;;;1.38;;
52974;SDS011;38839;45.186;5.720;2023-11-21T09:15:43;5.15;;;1.98;;
52974;SDS011;38839;45.186;5.720;2023-11-21T09:18:11;6.40;;;2.30;;
52974;SDS011;38839;45.186;5.720;2023-11-21T09:20:42;4.68;;;2.03;;
52974;SDS011;38839;45.186;5.720;2023-11-21T09:23:09;5.13;;;2.22;;
52974;SDS011;38839;45.186;5.720;2023-11-21T09:25:34;4.85;;;2.35;;
52974;SDS011;38839;45.186;5.720;2023-11-21T09:28:01;3.72;;;1.95;;
52974;SDS011;38839;45.186;5.720;2023-11-21T09:30:26;6.07;;;2.28;;
52974;SDS011;38839;45.186;5.720;2023-11-21T09:32:52;4.45;;;2.33;;
52974;SDS011;38839;45.186;5.720;2023-11-21T09:35:17;4.00;;;2.10;;
52974;SDS011;38839;45.186;5.720;2023-11-21T09:37:46;5.50;;;2.15;;
52974;SDS011;38839;45.186;5.720;2023-11-21T09:40:12;4.45;;;2.00;;
52974;SDS011;38839;45.186;5.720;2023-11-21T09:42:38;4.78;;;2.20;;
52974;SDS011;38839;45.186;5.720;2023-11-21T09:45:32;6.05;;;2.15;;
52974;SDS011;38839;45.186;5.720;2023-11-21T09:47:59;3.85;;;2.10;;
52974;SDS011;38839;45.186;5.720;2023-11-21T09:50:25;6.30;;;2.58;;
52974;SDS011;38839;45.186;5.720;2023-11-21T09:52:55;7.97;;;2.67;;
52974;SDS011;38839;45.186;5.720;2023-11-21T09:55:50;5.50;;;2.63;;
52974;SDS011;38839;45.186;5.720;2023-11-21T09:58:19;9.65;;;2.67;;
52974;SDS011;38839;45.186;5.720;2023-11-21T10:00:47;5.28;;;2.95;;
52974;SDS011;38839;45.186;5.720;2023-11-21T10:03:14;7.65;;;2.10;;
52974;SDS011;38839;45.186;5.720;2023-11-21T10:05:41;5.35;;;1.88;;
52974;SDS011;38839;45.186;5.720;2023-11-21T10:08:08;7.05;;;2.40;;
52974;SDS011;38839;45.186;5.720;2023-11-21T10:10:35;4.43;;;2.05;;
52974;SDS011;38839;45.186;5.720;2023-11-21T10:13:02;7.68;;;2.25;;
52974;SDS011;38839;45.186;5.720;2023-11-21T10:15:35;5.85;;;2.20;;
52974;SDS011;38839;45.186;5.720;2023-11-21T10:18:01;4.90;;;1.58;;
52974;SDS011;38839;45.186;5.720;2023-11-21T10:20:28;6.82;;;1.63;;
52974;SDS011;38839;45.186;5.720;2023-11-21T10:22:54;4.05;;;1.63;;
52974;SDS011;38839;45.186;5.720;2023-11-21T10:25:21;7.88;;;2.53;;
52974;SDS011;38839;45.186;5.720;2023-11-21T10:27:47;3.92;;;2.90;;
52974;SDS011;38839;45.186;5.720;2023-11-21T10:30:16;5.07;;;2.90;;
52974;SDS011;38839;45.186;5.720;2023-11-21T10:32:42;8.02;;;3.80;;
52974;SDS011;38839;45.186;5.720;2023-11-21T10:35:08;6.35;;;3.22;;
52974;SDS011;38839;45.186;5.720;2023-11-21T10:37:38;7.15;;;3.10;;
52974;SDS011;38839;45.186;5.720;2023-11-21T10:40:09;6.32;;;2.88;;
52974;SDS011;38839;45.186;5.720;2023-11-21T10:42:39;2.47;;;1.58;;
52974;SDS011;38839;45.186;5.720;2023-11-21T10:45:05;4.63;;;1.55;;
52974;SDS011;38839;45.186;5.720;2023-11-21T10:47:38;4.45;;;1.75;;
52974;SDS011;38839;45.186;5.720;2023-11-21T10:50:05;3.95;;;1.50;;
52974;SDS011;38839;45.186;5.720;2023-11-21T10:52:30;2.95;;;1.67;;
52974;SDS011;38839;45.186;5.720;2023-11-21T10:54:56;5.10;;;1.67;;
52974;SDS011;38839;45.186;5.720;2023-11-21T10:57:24;6.60;;;1.48;;
52974;SDS011;38839;45.186;5.720;2023-11-21T10:59:50;4.15;;;2.53;;
52974;SDS011;38839;45.186;5.720;2023-11-21T11:02:25;6.15;;;2.80;;
52974;SDS011;38839;45.186;5.720;2023-11-21T11:04:53;4.25;;;2.13;;
52974;SDS011;38839;45.186;5.720;2023-11-21T11:07:20;6.65;;;1.73;;
52974;SDS011;38839;45.186;5.720;2023-11-21T11:09:50;2.90;;;1.40;;
52974;SDS011;38839;45.186;5.720;2023-11-21T11:12:17;1.83;;;1.27;;
52974;SDS011;38839;45.186;5.720;2023-11-21T11:14:44;4.30;;;1.27;;
52974;SDS011;38839;45.186;5.720;2023-11-21T11:17:10;5.07;;;1.30;;
52974;SDS011;38839;45.186;5.720;2023-11-21T11:19:36;3.83;;;1.85;;
52974;SDS011;38839;45.186;5.720;2023-11-21T11:32:43;3.58;;;1.40;;
52974;SDS011;38839;45.186;5.720;2023-11-21T11:35:24;2.30;;;1.40;;
52974;SDS011;38839;45.186;5.720;2023-11-21T11:37:58;3.10;;;1.55;;
52974;SDS011;38839;45.186;5.720;2023-11-21T11:40:26;4.05;;;1.40;;
52974;SDS011;38839;45.186;5.720;2023-11-21T11:43:05;4.20;;;1.40;;
52974;SDS011;38839;45.186;5.720;2023-11-21T11:45:32;2.10;;;1.20;;
52974;SDS011;38839;45.186;5.720;2023-11-21T11:47:59;3.75;;;1.40;;
52974;SDS011;38839;45.186;5.720;2023-11-21T11:50:25;5.25;;;1.80;;
52974;SDS011;38839;45.186;5.720;2023-11-21T11:52:54;3.20;;;1.75;;
52974;SDS011;38839;45.186;5.720;2023-11-21T11:55:36;3.22;;;1.73;;
52974;SDS011;38839;45.186;5.720;2023-11-21T11:58:04;5.88;;;1.80;;
52974;SDS011;38839;45.186;5.720;2023-11-21T12:00:34;2.33;;;1.23;;
52974;SDS011;38839;45.186;5.720;2023-11-21T12:03:06;4.07;;;1.58;;
52974;SDS011;38839;45.186;5.720;2023-11-21T12:05:34;5.40;;;1.88;;
52974;SDS011;38839;45.186;5.720;2023-11-21T12:10:30;3.05;;;1.75;;
52974;SDS011;38839;45.186;5.720;2023-11-21T12:12:57;2.92;;;1.80;;
52974;SDS011;38839;45.186;5.720;2023-11-21T12:15:24;2.38;;;1.63;;
52974;SDS011;38839;45.186;5.720;2023-11-21T12:17:51;4.03;;;1.65;;
52974;SDS011;38839;45.186;5.720;2023-11-21T12:20:20;2.85;;;1.23;;
52974;SDS011;38839;45.186;5.720;2023-11-21T12:22:48;3.60;;;1.55;;
52974;SDS011;38839;45.186;5.720;2023-11-21T12:25:22;5.18;;;1.67;;
52974;SDS011;38839;45.186;5.720;2023-11-21T12:27:50;2.67;;;1.27;;
52974;SDS011;38839;45.186;5.720;2023-11-21T12:30:18;1.60;;;1.05;;
52974;SDS011;38839;45.186;5.720;2023-11-21T12:32:50;2.65;;;1.40;;
52974;SDS011;38839;45.186;5.720;2023-11-21T12:35:17;2.63;;;1.20;;
52974;SDS011;38839;45.186;5.720;2023-11-21T12:37:46;3.50;;;1.33;;
52974;SDS011;38839;45.186;5.720;2023-11-21T12:40:13;4.68;;;1.20;;
52974;SDS011;38839;45.186;5.720;2023-11-21T12:42:42;2.70;;;1.30;;
52974;SDS011;38839;45.186;5.720;2023-11-21T12:47:42;2.63;;;1.20;;
52974;SDS011;38839;45.186;5.720;2023-11-21T12:50:08;1.42;;;1.00;;
52974;SDS011;38839;45.186;5.720;2023-11-21T12:53:02;2.53;;;1.00;;
52974;SDS011;38839;45.186;5.720;2023-11-21T12:55:29;4.28;;;1.23;;
52974;SDS011;38839;45.186;5.720;2023-11-21T12:58:02;1.45;;;1.10;;
52974;SDS011;38839;45.186;5.720;2023-11-21T13:00:34;4.00;;;1.10;;
52974;SDS011;38839;45.186;5.720;2023-11-21T13:03:07;2.08;;;0.90;;
52974;SDS011;38839;45.186;5.720;2023-11-21T13:05:35;1.80;;;1.00;;
52974;SDS011;38839;45.186;5.720;2023-11-21T13:08:08;2.05;;;0.73;;
52974;SDS011;38839;45.186;5.720;2023-11-21T13:10:35;2.13;;;0.80;;
52974;SDS011;38839;45.186;5.720;2023-11-21T13:13:05;3.10;;;1.00;;
52974;SDS011;38839;45.186;5.720;2023-11-21T13:15:33;1.85;;;0.90;;
52974;SDS011;38839;45.186;5.720;2023-11-21T13:18:01;3.15;;;1.10;;
52974;SDS011;38839;45.186;5.720;2023-11-21T13:20:27;1.40;;;1.10;;
52974;SDS011;38839;45.186;5.720;2023-11-21T13:22:56;2.53;;;0.95;;
52974;SDS011;38839;45.186;5.720;2023-11-21T13:25:24;2.00;;;0.95;;
52974;SDS011;38839;45.186;5.720;2023-11-21T13:27:56;2.50;;;0.90;;
52974;SDS011;38839;45.186;5.720;2023-11-21T13:30:25;1.15;;;0.85;;
52974;SDS011;38839;45.186;5.720;2023-11-21T13:32:53;2.60;;;0.82;;
52974;SDS011;38839;45.186;5.720;2023-11-21T13:35:22;2.35;;;1.10;;
52974;SDS011;38839;45.186;5.720;2023-11-21T13:37:56;4.18;;;0.90;;
52974;SDS011;38839;45.186;5.720;2023-11-21T13:40:25;1.87;;;1.30;;
52974;SDS011;38839;45.186;5.720;2023-11-21T13:42:54;1.88;;;1.00;;
52974;SDS011;38839;45.186;5.720;2023-11-21T13:45:23;1.65;;;1.10;;
52974;SDS011;38839;45.186;5.720;2023-11-21T13:47:52;2.63;;;1.05;;
52974;SDS011;38839;45.186;5.720;2023-11-21T13:50:23;3.28;;;1.20;;
52974;SDS011;38839;45.186;5.720;2023-11-21T13:52:53;1.67;;;1.38;;
52974;SDS011;38839;45.186;5.720;2023-11-21T13:55:19;2.00;;;1.33;;
52974;SDS011;38839;45.186;5.720;2023-11-21T13:57:45;2.63;;;1.40;;
52974;SDS011;38839;45.186;5.720;2023-11-21T14:00:14;1.30;;;1.20;;
52974;SDS011;38839;45.186;5.720;2023-11-21T14:02:59;2.17;;;1.20;;
52974;SDS011;38839;45.186;5.720;2023-11-21T14:05:26;2.13;;;1.13;;
52974;SDS011;38839;45.186;5.720;2023-11-21T14:07:54;1.73;;;1.10;;
52974;SDS011;38839;45.186;5.720;2023-11-21T14:10:20;2.25;;;1.30;;
52974;SDS011;38839;45.186;5.720;2023-11-21T14:12:49;1.55;;;1.00;;
52974;SDS011;38839;45.186;5.720;2023-11-21T14:15:15;1.27;;;1.17;;
52974;SDS011;38839;45.186;5.720;2023-11-21T14:17:43;1.85;;;0.93;;
52974;SDS011;38839;45.186;5.720;2023-11-21T14:20:09;2.22;;;1.52;;
52974;SDS011;38839;45.186;5.720;2023-11-21T14:22:41;2.25;;;1.45;;
52974;SDS011;38839;45.186;5.720;2023-11-21T14:25:06;1.40;;;0.90;;
52974;SDS011;38839;45.186;5.720;2023-11-21T14:27:32;1.60;;;1.08;;
52974;SDS011;38839;45.186;5.720;2023-11-21T14:29:58;1.00;;;1.00;;
52974;SDS011;38839;45.186;5.720;2023-11-21T14:32:24;2.45;;;1.30;;
52974;SDS011;38839;45.186;5.720;2023-11-21T14:34:51;2.67;;;1.10;;
52974;SDS011;38839;45.186;5.720;2023-11-21T14:37:17;1.50;;;1.10;;
52974;SDS011;38839;45.186;5.720;2023-11-21T14:39:42;0.95;;;0.90;;
52974;SDS011;38839;45.186;5.720;2023-11-21T14:42:12;3.10;;;1.20;;
52974;SDS011;38839;45.186;5.720;2023-11-21T14:44:40;1.77;;;1.40;;
52974;SDS011;38839;45.186;5.720;2023-11-21T14:47:06;2.05;;;0.90;;
52974;SDS011;38839;45.186;5.720;2023-11-21T14:49:40;0.93;;;0.90;;
52974;SDS011;38839;45.186;5.720;2023-11-21T14:52:17;1.45;;;1.00;;
52974;SDS011;38839;45.186;5.720;2023-11-21T14:55:02;1.38;;;0.90;;
52974;SDS011;38839;45.186;5.720;2023-11-21T14:57:47;1.40;;;1.00;;
52974;SDS011;38839;45.186;5.720;2023-11-21T15:00:16;0.70;;;0.70;;
52974;SDS011;38839;45.186;5.720;2023-11-21T15:03:03;1.45;;;0.80;;
52974;SDS011;38839;45.186;5.720;2023-11-21T15:05:29;1.38;;;0.70;;
52974;SDS011;38839;45.186;5.720;2023-11-21T15:07:55;0.70;;;0.70;;